Saint Johns, AZ (85936)

10:23 PM MST on August 29, 2014 (GMT -0700)
Saint Johns Industrial | Change Station
CLOSE
Current Station
Airport
Location: St. Johns,
Elevation: 5725 ft
Nearby Weather Stations

Elev 5725 ft 34.52 °N, 109.38 °W | Updated 29 minutes ago

Clear
Clear
68 °F
Feels Like 68 °F
N
0
Wind Variable Wind from North

Today
High -- | Low -- °F
--% Chance of Precip.
Yesterday
High -- | Low -- °F
Precip. -- in
5:48 AM 6:47 PM
Waxing Crescent, 19% visible
Pressure 29.88 in
Visibility 10.0 miles
Clouds Clear
Dew Point 44 °F
Humidity 42%
Rainfall 0.00 in
Snow Depth Not available.
UV 0 out of 12
Pollen 8.00 out of 12
Air Quality Not available.
Flu Activity Not available.
METAR KSJN 300454Z AUTO 00000KT 10SM CLR 20/07 A3016 RMK AO2 SLP117 T02000067

More Conditions Fewer Conditions

Pressure 29.88 in
Visibility 10.0 miles
Clouds Clear
Dew Point 44 °F
Humidity 42%
Rainfall 0.00 in
Snow Depth Not available.
UV 0 out of 12
Pollen 8.00 out of 12
Air Quality Not available.
Flu Activity Not available.
METAR KSJN 300454Z AUTO 00000KT 10SM CLR 20/07 A3016 RMK AO2 SLP117 T02000067

More Conditions Fewer Conditions

10-Day Weather Forecast

Almanac

Astronomy

Aug. 29, 2014 Rise Set
Actual Time 5:48 AM MST 6:47 PM MST
Civil Twilight 5:22 AM MST 7:13 PM MST
Nautical Twilight 4:52 AM MST 7:43 PM MST
Astronomical Twilight 4:20 AM MST 8:15 PM MST
Moon 9:29 AM MST (8/29) 8:59 PM MST (8/29)
Length of Visible Light 13h 50m
Length of Day
12h 59m
Tomorrow will be 2m 3s shorter.
Waxing Crescent, 19% of the Moon is Illuminated
Aug 30
Waxing Crescent
Sep 2
First Quarter
Sep 8
Full
Sep 15
Last Quarter
Sep 24
New

Yesterday's Extremes

State Highs State Lows

Community

WunderPhotos

Upload Photos

1,748,465 photos uploaded!

Nearby

Snow Depth

Station Depth Elevation
Beaver Head 24 in 7990 ft
Workman Creek 1 in 6900 ft
Snowslide Canyon 0 in 9730 ft

Earthquake Activity

City Distance Mag. Time & Date
No recent earthquake activity has been reported nearby.
Minimum magnitude displayed is 2.5.

Coastal Water Temperatures

Place Temperature
No Stations Reporting

Nearby Weather Stations